createdAt,value
2023-06-11T00:01:10.869Z,54.63
2023-06-11T00:03:38.862Z,54.71
2023-06-11T00:06:07.520Z,54.86
2023-06-11T00:08:35.692Z,55.02
2023-06-11T00:11:03.619Z,55.53
2023-06-11T00:13:31.552Z,55.55
2023-06-11T00:15:59.484Z,55.81
2023-06-11T00:18:27.664Z,56.04
2023-06-11T00:20:55.738Z,56.31
2023-06-11T00:23:23.617Z,56.60
2023-06-11T00:25:52.565Z,56.55
2023-06-11T00:28:21.153Z,56.68
2023-06-11T00:30:49.066Z,56.68
2023-06-11T00:33:17.115Z,57.00
2023-06-11T00:35:45.080Z,57.49
2023-06-11T00:38:13.598Z,57.97
2023-06-11T00:40:41.581Z,57.61
2023-06-11T00:43:10.010Z,57.57
2023-06-11T00:45:39.585Z,57.94
2023-06-11T00:48:08.465Z,57.81
2023-06-11T00:50:47.544Z,57.67
2023-06-11T00:53:16.210Z,57.71
2023-06-11T00:55:44.180Z,57.74
2023-06-11T00:58:19.736Z,57.94
2023-06-11T01:00:51.540Z,57.89
2023-06-11T01:03:29.243Z,58.08
2023-06-11T01:06:06.685Z,58.78
2023-06-11T01:08:41.415Z,58.28
2023-06-11T01:11:16.247Z,58.25
2023-06-11T01:13:44.363Z,58.40
2023-06-11T01:16:17.721Z,58.58
2023-06-11T01:19:00.570Z,58.95
2023-06-11T01:21:35.539Z,60.25
2023-06-11T01:24:42.771Z,59.42
2023-06-11T01:27:21.114Z,59.56
2023-06-11T01:29:51.809Z,59.69
2023-06-11T01:32:26.176Z,59.41
2023-06-11T01:35:05.241Z,59.85
2023-06-11T01:37:35.321Z,60.65
2023-06-11T01:40:03.217Z,59.65
2023-06-11T01:42:31.094Z,59.71
2023-06-11T01:44:58.928Z,59.99
2023-06-11T01:47:26.958Z,59.92
2023-06-11T01:49:54.929Z,60.42
2023-06-11T01:52:22.913Z,60.82
2023-06-11T01:54:50.852Z,61.11
2023-06-11T01:57:18.806Z,61.31
2023-06-11T01:59:46.884Z,61.61
2023-06-11T02:02:15.030Z,61.89
2023-06-11T02:04:42.970Z,62.29
2023-06-11T02:07:10.933Z,62.88
2023-06-11T02:09:38.862Z,62.88
2023-06-11T02:12:08.422Z,63.16
2023-06-11T02:14:36.406Z,62.34
2023-06-11T02:17:04.448Z,62.31
2023-06-11T02:19:32.366Z,62.40
2023-06-11T02:22:00.276Z,62.26
2023-06-11T02:24:28.736Z,62.52
2023-06-11T02:26:56.798Z,63.00
2023-06-11T02:29:24.848Z,62.66
2023-06-11T02:31:52.770Z,63.40
2023-06-11T02:34:20.728Z,62.83
2023-06-11T02:36:48.684Z,62.81
2023-06-11T02:39:17.198Z,62.81
2023-06-11T02:41:45.093Z,63.53
2023-06-11T02:44:12.995Z,63.35
2023-06-11T02:46:41.019Z,63.23
2023-06-11T02:49:09.056Z,63.50
2023-06-11T02:51:37.077Z,63.49
2023-06-11T02:54:06.439Z,64.15
2023-06-11T02:56:34.429Z,63.93
2023-06-11T02:59:02.409Z,63.70
2023-06-11T03:01:30.648Z,64.02
2023-06-11T03:03:58.537Z,63.86
2023-06-11T03:06:26.695Z,64.03
2023-06-11T03:08:55.724Z,63.93
2023-06-11T03:11:23.728Z,64.03
2023-06-11T03:13:51.625Z,64.56
2023-06-11T03:16:19.584Z,64.77
2023-06-11T03:18:48.590Z,64.85
2023-06-11T03:21:16.685Z,64.58
2023-06-11T03:23:44.692Z,64.77
2023-06-11T03:26:12.646Z,64.80
2023-06-11T03:28:40.635Z,65.33
2023-06-11T03:31:08.792Z,65.03
2023-06-11T03:33:36.987Z,65.12
2023-06-11T03:36:05.013Z,65.28
2023-06-11T03:38:33.080Z,65.46
2023-06-11T03:41:01.123Z,65.63
2023-06-11T03:43:29.134Z,65.86
2023-06-11T03:45:57.117Z,66.09
2023-06-11T03:48:25.001Z,66.27
2023-06-11T03:50:52.957Z,66.51
2023-06-11T03:53:20.930Z,67.02
2023-06-11T03:55:48.870Z,67.50
2023-06-11T03:58:16.849Z,68.02
2023-06-11T04:00:44.770Z,68.41
2023-06-11T04:03:12.876Z,68.70
2023-06-11T04:05:40.917Z,68.89
2023-06-11T04:08:09.038Z,69.32
2023-06-11T04:10:37.106Z,69.50
2023-06-11T04:13:05.145Z,69.62
2023-06-11T04:15:34.582Z,69.79
2023-06-11T04:18:02.518Z,70.00
2023-06-11T04:20:30.534Z,70.21
2023-06-11T04:22:59.771Z,70.29
2023-06-11T04:25:27.866Z,70.36
2023-06-11T04:27:55.767Z,70.50
2023-06-11T04:30:23.787Z,70.58
2023-06-11T04:32:57.181Z,70.77
2023-06-11T04:35:28.572Z,70.90
2023-06-11T04:37:58.210Z,71.05
2023-06-11T04:40:26.501Z,71.27
2023-06-11T04:42:54.493Z,70.90
2023-06-11T04:45:22.940Z,70.88
2023-06-11T04:47:52.643Z,70.90
2023-06-11T04:50:23.766Z,70.94
2023-06-11T04:52:54.932Z,70.75
2023-06-11T04:55:26.926Z,71.22
2023-06-11T04:57:56.729Z,70.01
2023-06-11T05:00:24.819Z,69.75
2023-06-11T05:02:54.335Z,69.74
2023-06-11T05:05:22.328Z,70.01
2023-06-11T05:07:50.308Z,69.30
2023-06-11T05:10:20.220Z,69.20
2023-06-11T05:12:48.185Z,68.42
2023-06-11T05:15:16.208Z,68.16
2023-06-11T05:17:44.178Z,68.41
2023-06-11T05:20:13.259Z,68.32
2023-06-11T05:22:41.980Z,69.04
2023-06-11T05:25:11.227Z,68.26
2023-06-11T05:27:39.513Z,68.63
2023-06-11T05:30:08.228Z,68.94
2023-06-11T05:32:36.213Z,68.33
2023-06-11T05:35:06.257Z,68.18
2023-06-11T05:37:34.242Z,67.75
2023-06-11T05:40:02.274Z,67.07
2023-06-11T05:42:30.241Z,66.73
2023-06-11T05:44:58.254Z,66.10
2023-06-11T05:47:26.209Z,66.05
2023-06-11T05:49:54.259Z,66.02
2023-06-11T05:52:22.418Z,65.42
2023-06-11T05:54:50.552Z,65.20
2023-06-11T05:57:23.055Z,64.83
2023-06-11T05:59:51.602Z,64.68
2023-06-11T06:02:20.352Z,64.09
2023-06-11T06:04:50.271Z,63.36
2023-06-11T06:07:18.825Z,62.77
2023-06-11T06:09:46.990Z,62.47
2023-06-11T06:12:14.935Z,62.56
2023-06-11T06:14:42.901Z,61.80
2023-06-11T06:17:10.790Z,61.42
2023-06-11T06:19:38.703Z,61.62
2023-06-11T06:22:07.054Z,61.52
2023-06-11T06:24:35.085Z,61.54
2023-06-11T06:27:03.198Z,61.24
2023-06-11T06:29:31.152Z,61.18
2023-06-11T06:31:59.079Z,61.27
2023-06-11T06:34:28.473Z,61.38
2023-06-11T06:36:56.455Z,61.76
2023-06-11T06:39:24.408Z,62.32
2023-06-11T06:41:52.387Z,62.24
2023-06-11T06:44:20.344Z,62.47
2023-06-11T06:46:48.347Z,62.58
2023-06-11T06:49:16.238Z,62.87
2023-06-11T06:51:44.214Z,63.22
2023-06-11T06:54:12.172Z,62.80
2023-06-11T06:56:40.111Z,62.49
2023-06-11T06:59:08.824Z,62.38
2023-06-11T07:01:37.146Z,62.29
2023-06-11T07:04:05.244Z,62.35
2023-06-11T07:06:33.420Z,62.40
2023-06-11T07:09:01.410Z,62.32
2023-06-11T07:11:29.391Z,62.49
2023-06-11T07:13:57.655Z,62.36
2023-06-11T07:16:25.645Z,62.34
2023-06-11T07:18:53.820Z,62.19
2023-06-11T07:21:21.852Z,62.09
2023-06-11T07:23:49.892Z,61.87
2023-06-11T07:26:18.206Z,61.71
2023-06-11T07:28:46.421Z,61.92
2023-06-11T07:31:15.271Z,61.96
2023-06-11T07:33:45.183Z,61.99
2023-06-11T07:36:13.199Z,61.99
2023-06-11T07:38:41.263Z,61.90
2023-06-11T07:41:09.279Z,61.92
2023-06-11T07:43:37.169Z,61.89
2023-06-11T07:46:06.019Z,61.71
2023-06-11T07:48:34.169Z,61.64
2023-06-11T07:51:02.104Z,61.50
2023-06-11T07:53:30.989Z,61.30
2023-06-11T07:55:59.428Z,61.11
2023-06-11T07:58:27.511Z,61.05
2023-06-11T08:00:55.569Z,61.03
2023-06-11T08:03:23.910Z,60.97
2023-06-11T08:05:53.167Z,60.80
2023-06-11T08:08:21.156Z,60.69
2023-06-11T08:10:52.986Z,60.66
2023-06-11T08:13:21.014Z,60.52
2023-06-11T08:15:48.978Z,60.36
2023-06-11T08:18:19.603Z,60.49
2023-06-11T08:20:47.907Z,60.63
2023-06-11T08:23:15.930Z,60.76
2023-06-11T08:25:44.248Z,61.05
2023-06-11T08:28:12.265Z,60.89
2023-06-11T08:30:40.239Z,60.94
2023-06-11T08:33:08.287Z,60.79
2023-06-11T08:35:36.322Z,60.62
2023-06-11T08:38:04.202Z,60.44
2023-06-11T08:40:32.744Z,60.42
2023-06-11T08:43:00.808Z,60.44
2023-06-11T08:45:28.809Z,60.10
2023-06-11T08:47:59.315Z,60.00
2023-06-11T08:50:27.989Z,59.74
2023-06-11T08:52:55.943Z,59.80
2023-06-11T08:55:24.053Z,59.42
2023-06-11T08:57:53.179Z,59.39
2023-06-11T09:00:21.693Z,59.41
2023-06-11T09:02:49.978Z,59.11
2023-06-11T09:05:18.172Z,58.74
2023-06-11T09:07:55.956Z,58.61
2023-06-11T09:10:23.929Z,58.20
2023-06-11T09:12:53.153Z,58.17
2023-06-11T09:15:22.943Z,57.97
2023-06-11T09:17:51.042Z,57.79
2023-06-11T09:20:19.183Z,57.50
2023-06-11T09:22:48.097Z,57.33
2023-06-11T09:25:20.566Z,57.22
2023-06-11T09:27:50.151Z,56.96
2023-06-11T09:30:20.432Z,56.79
2023-06-11T09:32:51.118Z,56.53
2023-06-11T09:35:22.145Z,56.17
2023-06-11T09:37:53.231Z,55.90
2023-06-11T09:40:25.664Z,55.63
2023-06-11T09:42:53.630Z,55.58
2023-06-11T09:45:23.325Z,55.38
2023-06-11T09:47:53.510Z,55.33
2023-06-11T09:50:22.468Z,55.23
2023-06-11T09:52:52.541Z,55.01
2023-06-11T09:55:20.854Z,54.85
2023-06-11T09:57:49.504Z,54.47
2023-06-11T10:00:18.039Z,54.07
2023-06-11T10:02:46.846Z,53.65
2023-06-11T10:05:15.462Z,53.19
2023-06-11T10:08:18.534Z,52.96
2023-06-11T10:10:49.910Z,52.78
2023-06-11T10:13:31.746Z,52.80
2023-06-11T10:16:04.890Z,51.50
2023-06-11T10:18:33.044Z,51.64
2023-06-11T10:21:03.565Z,51.65
2023-06-11T10:23:41.079Z,51.60
2023-06-11T10:26:11.981Z,50.94
2023-06-11T10:28:44.461Z,50.99
2023-06-11T10:31:12.482Z,50.91
2023-06-11T10:33:47.497Z,50.73
2023-06-11T10:36:28.252Z,50.38
2023-06-11T10:39:26.096Z,50.27
2023-06-11T10:42:02.306Z,50.20
2023-06-11T10:44:34.125Z,50.12
2023-06-11T10:47:02.986Z,50.01
2023-06-11T10:49:31.241Z,49.76
2023-06-11T10:52:03.417Z,49.47
2023-06-11T10:54:37.854Z,49.47
2023-06-11T10:57:06.756Z,49.19
2023-06-11T10:59:34.741Z,49.13
2023-06-11T11:02:02.921Z,48.88
2023-06-11T11:04:30.941Z,48.93
2023-06-11T11:07:10.675Z,48.84
2023-06-11T11:09:38.741Z,48.04
2023-06-11T11:12:08.156Z,47.97
2023-06-11T11:14:36.572Z,47.93
2023-06-11T11:17:05.092Z,47.79
2023-06-11T11:19:33.399Z,47.30
2023-06-11T11:22:01.422Z,46.74
2023-06-11T11:24:32.001Z,46.56
2023-06-11T11:27:00.085Z,46.26
2023-06-11T11:29:28.171Z,45.93
2023-06-11T11:31:56.378Z,45.83
2023-06-11T11:34:24.874Z,45.76
2023-06-11T11:36:53.131Z,45.59
2023-06-11T11:39:21.251Z,45.16
2023-06-11T11:41:51.040Z,44.94
2023-06-11T11:44:19.753Z,44.69
2023-06-11T11:46:47.890Z,44.48
2023-06-11T11:49:15.901Z,44.45
2023-06-11T11:51:48.094Z,44.54
2023-06-11T11:54:17.257Z,44.37
2023-06-11T11:56:45.341Z,44.19
2023-06-11T11:59:22.606Z,44.01
2023-06-11T12:02:01.687Z,43.58
2023-06-11T12:04:38.315Z,43.11
2023-06-11T12:07:17.343Z,43.03
2023-06-11T12:09:45.327Z,42.70
2023-06-11T12:12:13.406Z,42.65
2023-06-11T12:14:41.556Z,42.77
2023-06-11T12:17:12.719Z,43.01
2023-06-11T12:19:40.790Z,42.95
2023-06-11T12:22:08.951Z,42.26
2023-06-11T12:24:38.778Z,41.49
2023-06-11T12:27:11.164Z,41.04
2023-06-11T12:29:40.474Z,40.61
2023-06-11T12:32:15.476Z,40.70
2023-06-11T12:34:43.575Z,40.44
2023-06-11T12:37:12.710Z,40.77
2023-06-11T12:39:45.664Z,40.30
2023-06-11T12:42:13.757Z,39.64
2023-06-11T12:44:43.901Z,39.43
2023-06-11T12:47:12.363Z,38.71
2023-06-11T12:49:40.445Z,37.76
2023-06-11T12:52:10.992Z,37.16
2023-06-11T12:54:39.115Z,36.66
2023-06-11T12:57:07.511Z,36.74
2023-06-11T12:59:35.627Z,36.73
2023-06-11T13:02:03.580Z,36.77
2023-06-11T13:04:31.572Z,36.85
2023-06-11T13:06:59.813Z,36.82
2023-06-11T13:09:27.972Z,36.80
2023-06-11T13:11:56.013Z,36.66
2023-06-11T13:14:24.003Z,36.12
2023-06-11T13:16:53.898Z,36.48
2023-06-11T13:19:21.875Z,36.19
2023-06-11T13:21:50.181Z,36.18
2023-06-11T13:24:18.364Z,36.14
2023-06-11T13:26:46.995Z,35.91
2023-06-11T13:29:14.986Z,35.93
2023-06-11T13:31:42.982Z,35.83
2023-06-11T13:34:11.009Z,35.87
2023-06-11T13:36:38.996Z,35.59
2023-06-11T13:39:06.887Z,35.12
2023-06-11T13:41:35.343Z,35.18
2023-06-11T13:44:04.628Z,35.13
2023-06-11T13:46:34.018Z,34.91
2023-06-11T13:49:02.001Z,34.96
2023-06-11T13:51:33.200Z,34.87
2023-06-11T13:54:01.471Z,34.87
2023-06-11T13:56:30.072Z,34.96
2023-06-11T13:58:58.168Z,35.10
2023-06-11T14:01:26.310Z,34.90
2023-06-11T14:03:54.573Z,34.79
2023-06-11T14:06:22.773Z,34.83
2023-06-11T14:08:50.845Z,34.72
2023-06-11T14:11:19.564Z,34.38
2023-06-11T14:13:47.542Z,34.10
2023-06-11T14:16:15.629Z,33.93
2023-06-11T14:18:43.624Z,33.69
2023-06-11T14:21:11.545Z,33.50
2023-06-11T14:23:39.568Z,33.50
2023-06-11T14:26:07.551Z,33.43
2023-06-11T14:28:35.571Z,33.51
2023-06-11T14:31:07.190Z,33.53
2023-06-11T14:33:35.207Z,33.82
2023-06-11T14:36:07.366Z,34.00
2023-06-11T14:38:35.553Z,34.10
2023-06-11T14:41:03.622Z,33.79
2023-06-11T14:43:31.620Z,33.57
2023-06-11T14:45:59.822Z,33.58
2023-06-11T14:48:27.753Z,33.40
2023-06-11T14:50:57.182Z,33.50
2023-06-11T14:53:25.127Z,33.60
2023-06-11T14:55:53.165Z,33.85
2023-06-11T14:58:21.192Z,33.50
2023-06-11T15:00:49.139Z,33.23
2023-06-11T15:03:18.223Z,32.96
2023-06-11T15:05:47.270Z,32.73
2023-06-11T15:08:15.917Z,32.70
2023-06-11T15:10:43.865Z,32.33
2023-06-11T15:13:11.930Z,32.20
2023-06-11T15:15:39.878Z,32.22
2023-06-11T15:18:09.893Z,32.32
2023-06-11T15:20:37.818Z,32.35
2023-06-11T15:23:07.631Z,32.29
2023-06-11T15:25:37.627Z,32.02
2023-06-11T15:28:05.904Z,31.59
2023-06-11T15:30:33.934Z,31.57
2023-06-11T15:33:02.009Z,31.46
2023-06-11T15:35:30.010Z,31.21
2023-06-11T15:37:58.270Z,31.34
2023-06-11T15:40:26.255Z,31.19
2023-06-11T15:42:54.312Z,31.42
2023-06-11T15:45:22.472Z,31.35
2023-06-11T15:47:50.490Z,31.28
2023-06-11T15:50:18.534Z,31.37
2023-06-11T15:52:47.022Z,31.41
2023-06-11T15:55:15.244Z,31.05
2023-06-11T15:57:43.861Z,30.87
2023-06-11T16:00:12.609Z,30.78
2023-06-11T16:02:40.896Z,30.65
2023-06-11T16:05:09.524Z,30.59
2023-06-11T16:07:37.731Z,30.82
2023-06-11T16:10:06.052Z,31.11
2023-06-11T16:12:33.940Z,31.10
2023-06-11T16:15:01.915Z,31.00
2023-06-11T16:17:29.956Z,30.79
2023-06-11T16:19:58.859Z,30.61
2023-06-11T16:22:27.035Z,30.54
2023-06-11T16:24:55.011Z,30.50
2023-06-11T16:27:22.995Z,30.68
2023-06-11T16:29:50.986Z,30.84
2023-06-11T16:32:20.018Z,31.18
2023-06-11T16:34:48.074Z,30.93
2023-06-11T16:37:16.027Z,30.62
2023-06-11T16:39:43.948Z,30.60
2023-06-11T16:42:13.091Z,30.37
2023-06-11T16:44:41.087Z,30.22
2023-06-11T16:47:09.185Z,30.18
2023-06-11T16:49:37.185Z,30.24
2023-06-11T16:52:06.079Z,30.13
2023-06-11T16:54:34.047Z,30.01
2023-06-11T16:57:02.529Z,30.02
2023-06-11T16:59:30.467Z,30.07
2023-06-11T17:01:58.454Z,30.15
2023-06-11T17:04:26.314Z,30.26
2023-06-11T17:06:54.355Z,30.53
2023-06-11T17:09:23.446Z,30.49
2023-06-11T17:11:51.437Z,30.39
2023-06-11T17:14:19.573Z,30.33
2023-06-11T17:16:47.600Z,30.42
2023-06-11T17:19:15.733Z,30.56
2023-06-11T17:21:43.854Z,30.57
2023-06-11T17:24:12.586Z,30.82
2023-06-11T17:26:43.694Z,30.74
2023-06-11T17:29:12.385Z,30.73
2023-06-11T17:31:40.354Z,30.72
2023-06-11T17:34:08.583Z,30.81
2023-06-11T17:36:36.657Z,30.86
2023-06-11T17:39:04.675Z,30.85
2023-06-11T17:41:32.706Z,30.87
2023-06-11T17:44:00.863Z,30.93
2023-06-11T17:46:28.936Z,30.95
2023-06-11T17:48:56.976Z,31.15
2023-06-11T17:51:24.884Z,31.15
2023-06-11T17:53:52.945Z,31.20
2023-06-11T17:56:20.967Z,31.40
2023-06-11T17:58:48.992Z,31.67
2023-06-11T18:01:17.169Z,31.80
2023-06-11T18:03:45.314Z,31.93
2023-06-11T18:06:14.051Z,32.03
2023-06-11T18:08:43.515Z,32.45
2023-06-11T18:11:11.736Z,32.49
2023-06-11T18:13:39.710Z,32.68
2023-06-11T18:16:07.721Z,32.87
2023-06-11T18:18:35.692Z,32.95
2023-06-11T18:21:03.618Z,32.98
2023-06-11T18:23:31.604Z,33.14
2023-06-11T18:25:59.727Z,33.31
2023-06-11T18:28:28.047Z,33.34
2023-06-11T18:30:56.264Z,33.40
2023-06-11T18:33:24.384Z,33.51
2023-06-11T18:35:52.897Z,33.72
2023-06-11T18:38:21.020Z,33.75
2023-06-11T18:40:49.000Z,33.84
2023-06-11T18:43:17.015Z,33.89
2023-06-11T18:45:45.039Z,33.92
2023-06-11T18:48:13.144Z,33.85
2023-06-11T18:50:41.196Z,33.81
2023-06-11T18:53:09.645Z,33.78
2023-06-11T18:55:37.829Z,33.82
2023-06-11T18:58:07.719Z,33.85
2023-06-11T19:00:38.235Z,33.87
2023-06-11T19:03:06.357Z,33.80
2023-06-11T19:05:34.430Z,33.81
2023-06-11T19:08:02.479Z,33.78
2023-06-11T19:10:30.480Z,33.86
2023-06-11T19:12:58.690Z,33.87
2023-06-11T19:15:26.737Z,34.00
2023-06-11T19:17:54.678Z,34.10
2023-06-11T19:20:22.762Z,34.20
2023-06-11T19:22:50.753Z,34.26
2023-06-11T19:25:18.715Z,34.26
2023-06-11T19:27:46.725Z,34.37
2023-06-11T19:30:16.358Z,34.33
2023-06-11T19:32:44.393Z,34.44
2023-06-11T19:35:12.475Z,34.54
2023-06-11T19:37:40.444Z,34.41
2023-06-11T19:40:09.876Z,34.35
2023-06-11T19:42:38.279Z,34.35
2023-06-11T19:45:07.987Z,34.50
2023-06-11T19:47:36.512Z,34.71
2023-06-11T19:50:07.944Z,34.73
2023-06-11T19:52:36.529Z,34.51
2023-06-11T19:55:04.802Z,34.49
2023-06-11T19:57:32.759Z,34.63
2023-06-11T20:00:01.880Z,34.74
2023-06-11T20:02:29.856Z,34.80
2023-06-11T20:04:58.231Z,34.83
2023-06-11T20:07:26.437Z,34.96
2023-06-11T20:09:54.476Z,35.00
2023-06-11T20:12:22.410Z,35.00
2023-06-11T20:14:50.411Z,35.04
2023-06-11T20:17:18.328Z,35.19
2023-06-11T20:19:46.470Z,35.34
2023-06-11T20:22:14.486Z,35.43
2023-06-11T20:24:42.550Z,35.50
2023-06-11T20:27:10.486Z,35.57
2023-06-11T20:29:38.583Z,35.66
2023-06-11T20:32:10.415Z,35.80
2023-06-11T20:34:39.770Z,36.02
2023-06-11T20:37:07.988Z,36.06
2023-06-11T20:39:35.971Z,36.21
2023-06-11T20:42:03.944Z,36.41
2023-06-11T20:44:32.025Z,36.77
2023-06-11T20:46:59.952Z,36.92
2023-06-11T20:49:28.161Z,36.98
2023-06-11T20:51:56.126Z,37.36
2023-06-11T20:54:24.026Z,37.45
2023-06-11T20:56:52.014Z,37.63
2023-06-11T20:59:20.146Z,37.70
2023-06-11T21:01:48.542Z,37.86
2023-06-11T21:04:16.930Z,38.11
2023-06-11T21:06:44.963Z,38.38
2023-06-11T21:09:13.085Z,38.55
2023-06-11T21:11:41.010Z,38.75
2023-06-11T21:14:14.243Z,39.04
2023-06-11T21:16:42.761Z,39.26
2023-06-11T21:19:11.010Z,39.39
2023-06-11T21:21:39.272Z,39.71
2023-06-11T21:24:07.759Z,39.86
2023-06-11T21:26:35.793Z,40.03
2023-06-11T21:29:05.434Z,40.18
2023-06-11T21:31:33.711Z,40.41
2023-06-11T21:34:02.466Z,40.53
2023-06-11T21:36:30.455Z,40.60
2023-06-11T21:38:58.557Z,40.70
2023-06-11T21:41:26.682Z,40.82
2023-06-11T21:43:54.590Z,40.78
2023-06-11T21:46:22.579Z,40.81
2023-06-11T21:48:50.794Z,40.99
2023-06-11T21:51:19.031Z,41.20
2023-06-11T21:53:47.209Z,41.29
2023-06-11T21:56:15.138Z,41.39
2023-06-11T21:58:43.002Z,41.50
2023-06-11T22:01:10.967Z,41.62
2023-06-11T22:03:38.987Z,41.65
2023-06-11T22:06:07.276Z,41.71
2023-06-11T22:08:37.151Z,41.81
2023-06-11T22:11:05.420Z,42.00
2023-06-11T22:13:35.198Z,42.33
2023-06-11T22:16:03.142Z,42.55
2023-06-11T22:18:31.457Z,42.58
2023-06-11T22:21:00.270Z,42.55
2023-06-11T22:23:45.209Z,42.56
2023-06-11T22:26:16.478Z,42.69
2023-06-11T22:28:44.431Z,42.83
2023-06-11T22:31:12.304Z,42.92
2023-06-11T22:33:40.246Z,43.01
2023-06-11T22:36:08.418Z,43.03
2023-06-11T22:38:36.404Z,43.12
2023-06-11T22:41:04.296Z,43.29
2023-06-11T22:43:33.713Z,43.40
2023-06-11T22:46:01.639Z,43.46
2023-06-11T22:48:29.570Z,43.52
2023-06-11T22:50:59.173Z,43.59
2023-06-11T22:53:30.184Z,43.69
2023-06-11T22:56:03.668Z,43.81
2023-06-11T22:58:31.840Z,43.91
2023-06-11T23:00:59.859Z,44.06
2023-06-11T23:03:27.932Z,44.24
2023-06-11T23:05:55.887Z,44.41
2023-06-11T23:08:24.057Z,44.53
2023-06-11T23:10:52.044Z,44.66
2023-06-11T23:13:19.997Z,44.75
2023-06-11T23:15:48.227Z,44.88
2023-06-11T23:18:19.427Z,44.95
2023-06-11T23:20:48.946Z,45.02
2023-06-11T23:23:17.887Z,45.09
2023-06-11T23:25:51.901Z,45.30
2023-06-11T23:28:20.728Z,45.33
2023-06-11T23:30:48.693Z,45.40
2023-06-11T23:33:16.666Z,45.52
2023-06-11T23:35:44.715Z,45.53
2023-06-11T23:38:12.686Z,45.57
2023-06-11T23:40:40.625Z,45.71
2023-06-11T23:43:08.569Z,45.84
2023-06-11T23:45:36.490Z,46.08
2023-06-11T23:48:04.485Z,46.29
2023-06-11T23:50:32.445Z,46.17
2023-06-11T23:53:00.773Z,46.18
2023-06-11T23:55:28.973Z,46.26
2023-06-11T23:58:22.104Z,46.49
